createdAt,value
2019-02-19T00:00:58.304Z,9.57
2019-02-19T00:03:26.731Z,11.50
2019-02-19T00:05:55.502Z,10.20
2019-02-19T00:08:23.942Z,10.27
2019-02-19T00:10:52.336Z,12.47
2019-02-19T00:13:20.759Z,8.50
2019-02-19T00:15:49.149Z,9.63
2019-02-19T00:18:17.544Z,8.57
2019-02-19T00:20:45.965Z,8.73
2019-02-19T00:23:14.371Z,11.07
2019-02-19T00:25:42.775Z,8.40
2019-02-19T00:28:11.334Z,6.07
2019-02-19T00:30:39.794Z,11.37
2019-02-19T00:33:08.193Z,8.73
2019-02-19T00:35:36.686Z,5.70
2019-02-19T00:38:06.333Z,6.83
2019-02-19T00:40:34.780Z,6.97
2019-02-19T00:43:03.149Z,8.73
2019-02-19T00:45:31.542Z,7.50
2019-02-19T00:47:59.930Z,7.73
2019-02-19T00:50:28.509Z,8.77
2019-02-19T00:52:56.917Z,8.90
2019-02-19T00:55:25.288Z,8.37
2019-02-19T00:57:53.741Z,6.30
2019-02-19T01:00:22.172Z,6.33
2019-02-19T01:02:50.629Z,7.17
2019-02-19T01:05:19.122Z,7.83
2019-02-19T01:07:47.814Z,7.67
2019-02-19T01:10:16.185Z,5.73
2019-02-19T01:12:44.610Z,5.23
2019-02-19T01:15:13.095Z,5.07
2019-02-19T01:17:41.488Z,6.03
2019-02-19T01:20:10.284Z,9.30
2019-02-19T01:22:38.762Z,5.43
2019-02-19T01:25:08.094Z,6.60
2019-02-19T01:27:36.540Z,6.80
2019-02-19T01:30:08.077Z,8.03
2019-02-19T01:32:36.458Z,8.23
2019-02-19T01:35:05.942Z,6.03
2019-02-19T01:37:34.338Z,6.47
2019-02-19T01:40:02.994Z,6.57
2019-02-19T01:42:31.495Z,5.47
2019-02-19T01:44:59.892Z,7.63
2019-02-19T01:47:28.288Z,5.70
2019-02-19T01:49:56.730Z,4.70
2019-02-19T01:52:25.122Z,7.80
2019-02-19T01:54:53.519Z,5.40
2019-02-19T01:57:21.934Z,5.70
2019-02-19T01:59:50.802Z,4.13
2019-02-19T02:50:55.459Z,4.53
2019-02-19T02:53:23.933Z,5.07
2019-02-19T02:55:52.334Z,4.80
2019-02-19T02:58:20.763Z,5.50
2019-02-19T03:00:49.166Z,6.87
2019-02-19T03:03:17.556Z,5.77
2019-02-19T03:05:55.162Z,5.70
2019-02-19T03:08:23.552Z,5.20
2019-02-19T03:10:51.991Z,4.63
2019-02-19T03:13:20.456Z,4.57
2019-02-19T03:15:48.844Z,5.00
2019-02-19T03:18:17.300Z,4.37
2019-02-19T03:20:45.792Z,8.53
2019-02-19T03:23:14.194Z,6.73
2019-02-19T03:25:42.583Z,6.90
2019-02-19T03:28:11.094Z,4.27
2019-02-19T03:30:42.485Z,3.90
2019-02-19T03:33:10.874Z,4.93
2019-02-19T03:35:39.628Z,6.40
2019-02-19T03:38:08.021Z,5.93
2019-02-19T03:40:36.421Z,4.83
2019-02-19T03:43:07.371Z,5.27
2019-02-19T03:45:35.735Z,5.73
2019-02-19T03:48:04.128Z,5.40
2019-02-19T03:50:32.553Z,5.20
2019-02-19T03:53:01.195Z,4.50
2019-02-19T03:55:29.659Z,7.90
2019-02-19T03:57:58.161Z,6.77
2019-02-19T04:00:26.625Z,4.93
2019-02-19T04:02:55.150Z,4.73
2019-02-19T04:05:23.620Z,6.47
2019-02-19T04:07:51.991Z,5.30
2019-02-19T04:10:20.382Z,4.23
2019-02-19T04:12:48.797Z,4.23
2019-02-19T04:15:17.197Z,5.57
2019-02-19T04:17:45.584Z,5.20
2019-02-19T04:20:14.413Z,4.40
2019-02-19T04:22:42.807Z,4.73
2019-02-19T04:25:11.342Z,7.80
2019-02-19T04:27:39.771Z,4.93
2019-02-19T04:30:09.338Z,4.67
2019-02-19T04:32:37.705Z,4.23
2019-02-19T04:35:06.493Z,4.53
2019-02-19T04:37:34.865Z,5.53
2019-02-19T04:40:03.935Z,8.37
2019-02-19T04:42:32.352Z,3.57
2019-02-19T04:45:00.761Z,6.87
2019-02-19T04:47:29.232Z,4.47
2019-02-19T04:49:57.719Z,4.03
2019-02-19T04:52:26.115Z,4.53
2019-02-19T04:54:54.519Z,5.90
2019-02-19T04:57:23.013Z,5.47
2019-02-19T04:59:51.414Z,3.87
2019-02-19T05:02:19.798Z,5.33
2019-02-19T05:04:48.263Z,5.63
2019-02-19T05:07:16.655Z,6.50
2019-02-19T05:09:45.049Z,3.97
2019-02-19T05:12:13.617Z,3.30
2019-02-19T05:14:42.017Z,3.93
2019-02-19T05:17:10.412Z,4.10
2019-02-19T05:19:38.938Z,8.13
2019-02-19T05:22:07.333Z,4.40
2019-02-19T05:24:35.729Z,3.77
2019-02-19T05:27:04.462Z,5.37
2019-02-19T05:29:32.852Z,5.60
2019-02-19T05:32:01.243Z,4.43
2019-02-19T05:34:29.656Z,6.03
2019-02-19T05:36:58.047Z,4.73
2019-02-19T05:39:26.463Z,6.87
2019-02-19T05:41:54.945Z,4.23
2019-02-19T05:44:23.343Z,4.27
2019-02-19T05:46:51.751Z,6.23
2019-02-19T05:49:20.286Z,4.40
2019-02-19T05:51:50.206Z,4.57
2019-02-19T05:54:18.592Z,5.20
2019-02-19T05:56:47.381Z,5.03
2019-02-19T05:59:15.773Z,4.10
2019-02-19T06:01:44.176Z,4.10
2019-02-19T06:04:12.623Z,4.67
2019-02-19T06:06:41.013Z,5.80
2019-02-19T06:09:09.411Z,4.20
2019-02-19T06:11:37.821Z,5.17
2019-02-19T06:14:06.278Z,5.33
2019-02-19T06:16:34.671Z,4.27
2019-02-19T06:19:03.120Z,3.80
2019-02-19T06:21:31.517Z,5.13
2019-02-19T06:23:59.910Z,6.10
2019-02-19T06:26:28.659Z,4.70
2019-02-19T06:28:57.893Z,5.03
2019-02-19T06:31:26.322Z,4.10
2019-02-19T06:33:54.763Z,4.33
2019-02-19T06:36:23.156Z,5.53
2019-02-19T06:38:51.574Z,4.87
2019-02-19T06:41:20.072Z,4.13
2019-02-19T06:43:48.464Z,5.83
2019-02-19T06:46:16.870Z,5.27
2019-02-19T06:48:45.304Z,4.77
2019-02-19T06:51:13.690Z,6.80
2019-02-19T06:53:42.084Z,3.80
2019-02-19T06:56:10.499Z,4.23
2019-02-19T06:58:38.928Z,3.90
2019-02-19T07:01:07.325Z,6.47
2019-02-19T07:03:37.473Z,4.23
2019-02-19T07:06:05.866Z,4.20
2019-02-19T07:08:34.264Z,5.67
2019-02-19T07:11:02.800Z,5.07
2019-02-19T07:13:31.152Z,5.73
2019-02-19T07:15:59.542Z,4.93
2019-02-19T07:18:28.305Z,6.83
2019-02-19T07:20:56.693Z,7.23
2019-02-19T07:23:25.079Z,4.23
2019-02-19T07:25:53.832Z,3.27
2019-02-19T07:28:22.224Z,3.87
2019-02-19T07:30:50.614Z,5.27
2019-02-19T07:33:19.036Z,4.60
2019-02-19T07:35:47.428Z,4.90
2019-02-19T07:38:15.830Z,4.20
2019-02-19T07:40:44.412Z,4.23
2019-02-19T07:43:12.815Z,6.47
2019-02-19T07:45:41.215Z,4.93
2019-02-19T07:48:09.726Z,4.23
2019-02-19T07:50:38.119Z,5.17
2019-02-19T07:53:06.584Z,5.03
2019-02-19T07:55:35.117Z,5.67
2019-02-19T07:58:03.507Z,4.53
2019-02-19T08:00:31.952Z,6.00
2019-02-19T08:03:00.695Z,4.77
2019-02-19T08:05:29.084Z,4.80
2019-02-19T08:07:57.484Z,7.23
2019-02-19T08:10:26.023Z,6.20
2019-02-19T08:12:54.418Z,4.93
2019-02-19T08:15:22.809Z,7.20
2019-02-19T08:17:51.306Z,4.03
2019-02-19T08:20:19.770Z,4.10
2019-02-19T08:22:48.165Z,7.07
2019-02-19T08:25:16.752Z,3.73
2019-02-19T08:27:45.146Z,3.80
2019-02-19T08:30:13.538Z,3.93
2019-02-19T08:32:41.969Z,4.53
2019-02-19T08:35:10.357Z,5.27
2019-02-19T08:37:38.751Z,5.60
2019-02-19T08:40:09.575Z,3.77
2019-02-19T08:42:37.942Z,4.03
2019-02-19T08:45:08.183Z,3.23
2019-02-19T08:47:42.749Z,4.27
2019-02-19T08:50:08.327Z,5.97
2019-02-19T08:52:36.707Z,5.93
2019-02-19T08:55:05.940Z,3.70
2019-02-19T08:57:34.372Z,4.97
2019-02-19T09:00:02.733Z,5.10
2019-02-19T09:02:31.500Z,6.13
2019-02-19T09:04:59.898Z,5.07
2019-02-19T09:07:28.363Z,8.83
2019-02-19T09:09:57.034Z,4.57
2019-02-19T09:12:25.445Z,3.80
2019-02-19T09:14:53.842Z,5.73
2019-02-19T09:17:22.248Z,8.60
2019-02-19T09:19:50.646Z,3.43
2019-02-19T09:22:19.037Z,3.20
2019-02-19T09:24:47.762Z,4.63
2019-02-19T09:27:16.163Z,2.93
2019-02-19T09:29:44.554Z,2.97
2019-02-19T09:32:12.992Z,3.97
2019-02-19T09:34:41.374Z,5.30
2019-02-19T09:37:09.776Z,4.33
2019-02-19T09:39:38.313Z,4.37
2019-02-19T09:42:06.702Z,3.37
2019-02-19T09:44:35.098Z,4.37
2019-02-19T09:47:03.658Z,3.30
2019-02-19T09:49:32.053Z,5.70
2019-02-19T09:52:00.447Z,5.67
2019-02-19T09:54:28.907Z,4.87
2019-02-19T09:56:57.301Z,10.07
2019-02-19T09:59:25.691Z,4.27
2019-02-19T10:01:54.335Z,3.77
2019-02-19T10:04:22.729Z,2.87
2019-02-19T10:06:51.130Z,3.53
2019-02-19T10:09:19.624Z,3.37
2019-02-19T10:11:48.017Z,3.47
2019-02-19T10:14:16.402Z,4.37
2019-02-19T10:16:44.948Z,4.33
2019-02-19T10:19:13.344Z,4.37
2019-02-19T10:21:41.749Z,5.17
2019-02-19T10:24:10.152Z,4.37
2019-02-19T10:26:38.553Z,3.87
2019-02-19T10:29:07.004Z,3.00
2019-02-19T10:31:35.410Z,3.63
2019-02-19T10:34:03.806Z,7.03
2019-02-19T10:36:32.195Z,6.13
2019-02-19T10:39:00.711Z,3.23
2019-02-19T10:41:29.101Z,3.43
2019-02-19T10:43:57.493Z,5.00
2019-02-19T10:46:26.243Z,3.80
2019-02-19T10:48:54.642Z,4.97
2019-02-19T10:51:23.036Z,4.43
2019-02-19T10:53:51.498Z,5.13
2019-02-19T10:56:19.893Z,4.47
2019-02-19T10:58:48.290Z,6.47
2019-02-19T11:01:16.876Z,3.93
2019-02-19T11:03:45.272Z,5.30
2019-02-19T11:06:13.665Z,3.63
2019-02-19T11:08:42.181Z,8.30
2019-02-19T11:11:10.558Z,7.63
2019-02-19T11:13:38.955Z,5.80
2019-02-19T11:16:07.712Z,4.90
2019-02-19T11:18:36.183Z,4.30
2019-02-19T11:21:04.599Z,5.63
2019-02-19T11:23:33.784Z,4.53
2019-02-19T11:26:03.977Z,6.00
2019-02-19T11:28:32.373Z,6.83
2019-02-19T11:31:00.821Z,4.80
2019-02-19T11:33:29.219Z,7.03
2019-02-19T11:35:57.612Z,4.57
2019-02-19T11:38:26.061Z,5.87
2019-02-19T11:40:54.474Z,4.97
2019-02-19T11:43:22.875Z,4.27
2019-02-19T11:45:51.305Z,8.10
2019-02-19T11:48:19.709Z,3.53
2019-02-19T11:50:48.101Z,4.57
2019-02-19T11:53:16.624Z,5.77
2019-02-19T11:55:47.710Z,6.10
2019-02-19T11:58:16.103Z,6.37
2019-02-19T12:00:45.366Z,4.97
2019-02-19T12:03:13.773Z,3.83
2019-02-19T12:05:42.168Z,6.53
2019-02-19T12:08:11.017Z,4.83
2019-02-19T12:10:39.477Z,7.30
2019-02-19T12:13:07.872Z,6.00
2019-02-19T12:15:36.420Z,4.33
2019-02-19T12:18:04.815Z,6.33
2019-02-19T12:20:33.216Z,5.63
2019-02-19T12:23:01.677Z,5.70
2019-02-19T12:25:30.101Z,5.00
2019-02-19T12:27:58.494Z,7.73
2019-02-19T12:30:26.993Z,5.00
2019-02-19T12:32:55.384Z,5.33
2019-02-19T12:35:23.784Z,5.13
2019-02-19T12:37:52.289Z,7.57
2019-02-19T12:40:20.683Z,5.73
2019-02-19T12:42:49.079Z,6.07
2019-02-19T12:45:17.548Z,5.23
2019-02-19T12:47:45.898Z,8.43
2019-02-19T12:50:16.135Z,9.47
2019-02-19T12:52:44.711Z,7.83
2019-02-19T12:55:13.240Z,4.90
2019-02-19T12:57:41.642Z,7.37
2019-02-19T13:00:15.575Z,6.30
2019-02-19T13:02:44.243Z,4.93
2019-02-19T13:05:14.077Z,4.80
2019-02-19T13:07:42.581Z,5.17
2019-02-19T13:10:12.070Z,4.00
2019-02-19T13:12:40.448Z,4.70
2019-02-19T13:15:14.767Z,8.03
2019-02-19T13:17:43.176Z,7.53
2019-02-19T13:20:13.879Z,6.10
2019-02-19T13:22:42.473Z,4.77
2019-02-19T13:25:11.909Z,8.30
2019-02-19T13:27:40.378Z,5.83
2019-02-19T13:30:14.011Z,3.80
2019-02-19T13:32:42.407Z,7.37
2019-02-19T13:35:12.237Z,6.43
2019-02-19T13:37:40.720Z,9.10
2019-02-19T13:40:13.509Z,4.83
2019-02-19T13:42:41.906Z,4.93
2019-02-19T13:45:12.602Z,5.97
2019-02-19T13:47:41.029Z,6.90
2019-02-19T13:50:12.466Z,6.47
2019-02-19T13:53:00.330Z,6.17
2019-02-19T13:55:33.311Z,6.40
2019-02-19T13:58:01.709Z,6.73
2019-02-19T14:00:31.773Z,5.13
2019-02-19T14:03:00.180Z,5.47
2019-02-19T14:05:28.651Z,2.80
2019-02-19T14:07:57.411Z,6.77
2019-02-19T14:10:25.809Z,5.73
2019-02-19T14:12:54.201Z,10.20
2019-02-19T14:15:36.070Z,4.87
2019-02-19T14:18:06.101Z,6.10
2019-02-19T14:20:38.571Z,8.13
2019-02-19T14:23:11.303Z,5.93
2019-02-19T14:25:47.132Z,6.53
2019-02-19T14:28:17.272Z,8.47
2019-02-19T14:31:02.018Z,6.47
2019-02-19T14:33:49.244Z,8.20
2019-02-19T14:36:22.309Z,7.53
2019-02-19T14:39:01.103Z,7.37
2019-02-19T14:41:33.799Z,6.10
2019-02-19T14:44:09.609Z,4.87
2019-02-19T14:46:39.653Z,5.20
2019-02-19T14:49:36.644Z,4.97
2019-02-19T14:51:57.721Z,4.10
2019-02-19T14:54:31.199Z,6.97
2019-02-19T14:57:03.636Z,6.13
2019-02-19T14:59:33.669Z,8.03
2019-02-19T15:02:19.661Z,6.97
2019-02-19T15:05:05.706Z,8.73
2019-02-19T15:07:35.791Z,5.00
2019-02-19T15:10:19.130Z,5.93
2019-02-19T15:13:07.120Z,7.70
2019-02-19T15:15:43.068Z,6.27
2019-02-19T15:18:13.129Z,5.87
2019-02-19T15:20:51.877Z,6.03
2019-02-19T15:23:27.927Z,11.90
2019-02-19T15:26:06.634Z,3.63
2019-02-19T15:28:36.873Z,5.80
2019-02-19T15:31:06.914Z,4.80
2019-02-19T15:33:45.871Z,4.13
2019-02-19T15:36:21.468Z,7.40
2019-02-19T15:39:00.367Z,4.60
2019-02-19T15:41:33.127Z,4.90
2019-02-19T15:44:03.165Z,4.23
2019-02-19T15:46:36.245Z,5.87
2019-02-19T15:49:14.995Z,6.27
2019-02-19T15:51:56.543Z,9.70
2019-02-19T15:54:29.237Z,6.13
2019-02-19T15:57:14.149Z,4.60
2019-02-19T15:59:46.942Z,10.10
2019-02-19T16:02:25.892Z,6.30
2019-02-19T16:04:55.927Z,5.33
2019-02-19T16:07:31.691Z,5.03
2019-02-19T16:10:04.439Z,6.50
2019-02-19T16:12:46.349Z,8.53
2019-02-19T16:15:32.174Z,4.43
2019-02-19T16:18:20.249Z,7.90
2019-02-19T16:20:52.756Z,8.83
2019-02-19T16:23:25.524Z,8.13
2019-02-19T16:26:01.538Z,4.87
2019-02-19T16:28:31.600Z,4.47
2019-02-19T16:31:10.603Z,5.10
2019-02-19T16:33:49.497Z,4.87
2019-02-19T16:36:19.537Z,7.67
2019-02-19T16:39:04.508Z,8.37
2019-02-19T16:41:46.093Z,9.57
2019-02-19T16:44:16.566Z,7.73
2019-02-19T16:47:02.520Z,8.83
2019-02-19T16:49:35.436Z,9.90
2019-02-19T16:52:05.477Z,9.23
2019-02-19T16:54:35.519Z,14.00
2019-02-19T16:57:05.679Z,10.70
2019-02-19T16:59:35.732Z,16.93
2019-02-19T17:02:08.703Z,10.47
2019-02-19T17:04:38.801Z,15.57
2019-02-19T17:07:11.916Z,17.53
2019-02-19T17:09:43.023Z,14.50
2019-02-19T17:12:15.496Z,11.97
2019-02-19T17:14:51.830Z,15.23
2019-02-19T17:17:28.962Z,15.70
2019-02-19T17:20:21.071Z,11.27
2019-02-19T17:22:48.312Z,12.10
2019-02-19T17:25:18.355Z,9.70
2019-02-19T17:27:54.356Z,9.57
2019-02-19T17:30:27.061Z,10.30
2019-02-19T17:32:57.103Z,9.17
2019-02-19T17:35:27.165Z,12.83
2019-02-19T17:38:00.118Z,11.43
2019-02-19T17:40:30.159Z,13.90
2019-02-19T17:43:00.408Z,8.23
2019-02-19T17:45:30.525Z,8.37
2019-02-19T17:48:00.551Z,12.23
2019-02-19T17:50:38.741Z,13.73
2019-02-19T17:53:14.874Z,12.03
2019-02-19T17:56:00.883Z,11.57
2019-02-19T17:58:30.988Z,10.00
2019-02-19T18:01:15.723Z,9.10
2019-02-19T18:03:57.814Z,13.30
2019-02-19T18:06:43.860Z,9.57
2019-02-19T18:09:16.612Z,13.37
2019-02-19T18:11:52.776Z,9.70
2019-02-19T18:14:40.897Z,9.87
2019-02-19T18:17:13.881Z,15.27
2019-02-19T18:19:42.295Z,14.50
2019-02-19T18:22:10.680Z,12.80
2019-02-19T18:24:39.179Z,10.00
2019-02-19T18:27:07.589Z,12.33
2019-02-19T18:29:35.987Z,10.87
2019-02-19T18:32:04.447Z,11.67
2019-02-19T18:34:32.849Z,14.90
2019-02-19T18:37:01.246Z,9.67
2019-02-19T18:39:29.728Z,13.87
2019-02-19T18:41:58.117Z,10.60
2019-02-19T18:44:26.525Z,10.30
2019-02-19T18:46:55.020Z,7.77
2019-02-19T18:49:23.416Z,10.27
2019-02-19T18:51:51.841Z,10.97
2019-02-19T18:54:20.347Z,9.03
2019-02-19T18:56:48.758Z,9.87
2019-02-19T18:59:17.159Z,11.47
2019-02-19T19:01:45.596Z,9.70
2019-02-19T19:04:14.131Z,12.17
2019-02-19T19:06:42.526Z,8.27
2019-02-19T19:09:10.946Z,10.80
2019-02-19T19:11:39.334Z,9.20
2019-02-19T19:14:07.735Z,13.37
2019-02-19T19:16:36.170Z,10.53
2019-02-19T19:19:04.598Z,11.23
2019-02-19T19:21:32.980Z,11.20
2019-02-19T19:24:01.476Z,12.23
2019-02-19T19:26:29.999Z,9.37
2019-02-19T19:28:58.422Z,10.63
2019-02-19T19:31:33.190Z,10.23
2019-02-19T19:33:57.074Z,9.90
2019-02-19T19:36:25.850Z,11.57
2019-02-19T19:38:54.619Z,10.40
2019-02-19T19:41:23.323Z,10.47
2019-02-19T19:43:52.108Z,14.37
2019-02-19T19:46:21.024Z,8.83
2019-02-19T19:48:49.830Z,13.13
2019-02-19T19:51:20.113Z,8.97
2019-02-19T19:53:48.954Z,11.97
2019-02-19T19:56:17.753Z,9.43
2019-02-19T19:58:46.579Z,10.50
2019-02-19T20:01:15.457Z,12.53
2019-02-19T20:03:44.270Z,10.33
2019-02-19T20:06:13.087Z,11.20
2019-02-19T20:08:42.310Z,11.03
2019-02-19T20:11:11.151Z,11.37
2019-02-19T20:13:40.001Z,10.90
2019-02-19T20:16:09.216Z,16.77
2019-02-19T20:18:39.374Z,13.87
2019-02-19T20:21:08.887Z,12.30
2019-02-19T20:23:37.765Z,10.37
2019-02-19T20:26:06.696Z,11.60
2019-02-19T20:28:35.519Z,14.93
2019-02-19T20:31:04.503Z,11.00
2019-02-19T20:33:33.334Z,10.20
2019-02-19T20:36:02.170Z,11.30
2019-02-19T20:38:31.051Z,14.17
2019-02-19T20:40:59.887Z,11.80
2019-02-19T20:43:28.691Z,13.03
2019-02-19T20:45:57.549Z,11.27
2019-02-19T20:48:26.324Z,9.27
2019-02-19T20:50:55.243Z,14.27
2019-02-19T20:53:24.404Z,11.57
2019-02-19T20:55:53.237Z,12.77
2019-02-19T20:58:22.116Z,11.10
2019-02-19T21:00:50.998Z,12.50
2019-02-19T21:03:19.632Z,11.47
2019-02-19T21:05:48.405Z,15.57
2019-02-19T21:08:16.953Z,8.10
2019-02-19T21:10:45.506Z,11.93
2019-02-19T21:13:14.251Z,10.37
2019-02-19T21:15:42.845Z,11.67
2019-02-19T21:18:11.299Z,10.33
2019-02-19T21:20:39.754Z,9.93
2019-02-19T21:23:08.203Z,11.50
2019-02-19T21:25:38.181Z,14.07
2019-02-19T21:28:06.604Z,12.23
2019-02-19T21:30:35.357Z,12.47
2019-02-19T21:33:03.835Z,11.10
2019-02-19T21:35:32.232Z,10.37
2019-02-19T21:38:00.749Z,9.87
2019-02-19T21:40:29.145Z,14.13
2019-02-19T21:42:57.541Z,10.10
2019-02-19T21:45:25.979Z,10.60
2019-02-19T21:47:54.579Z,10.40
2019-02-19T21:50:22.983Z,10.90
2019-02-19T21:52:51.405Z,12.17
2019-02-19T21:55:19.803Z,12.20
2019-02-19T21:57:48.196Z,12.80
2019-02-19T22:00:18.506Z,14.40
2019-02-19T22:02:46.894Z,9.30
2019-02-19T22:05:15.283Z,9.93
2019-02-19T22:07:43.787Z,11.97
2019-02-19T22:10:13.567Z,8.03
2019-02-19T22:12:41.913Z,11.07
2019-02-19T22:15:15.153Z,9.80
2019-02-19T22:17:43.539Z,8.87
2019-02-19T22:20:40.166Z,8.43
2019-02-19T22:23:08.730Z,9.50
2019-02-19T22:25:37.124Z,10.37
2019-02-19T22:28:06.046Z,7.27
2019-02-19T22:30:34.399Z,8.40
2019-02-19T22:33:02.788Z,11.33
2019-02-19T22:35:31.292Z,12.33
2019-02-19T22:37:59.702Z,10.60
2019-02-19T22:40:29.628Z,11.30
2019-02-19T22:42:58.052Z,13.63
2019-02-19T22:45:26.456Z,11.23
2019-02-19T22:47:54.850Z,14.03
2019-02-19T22:50:23.489Z,10.53
2019-02-19T22:52:51.885Z,10.20
2019-02-19T22:55:21.920Z,13.73
2019-02-19T22:57:50.754Z,9.63
2019-02-19T23:00:47.464Z,16.63
2019-02-19T23:03:18.108Z,14.10
2019-02-19T23:05:46.504Z,11.53
2019-02-19T23:08:14.906Z,11.87
2019-02-19T23:10:43.318Z,11.77
2019-02-19T23:13:11.705Z,11.63
2019-02-19T23:15:40.107Z,11.37
2019-02-19T23:18:08.613Z,11.47
2019-02-19T23:20:37.009Z,12.00
2019-02-19T23:23:05.404Z,15.30
2019-02-19T23:25:33.902Z,11.27
2019-02-19T23:28:02.560Z,13.07
2019-02-19T23:30:30.940Z,9.83
2019-02-19T23:32:59.443Z,9.03
2019-02-19T23:35:32.187Z,12.17
2019-02-19T23:38:00.595Z,12.87
2019-02-19T23:40:29.194Z,11.10
2019-02-19T23:42:57.578Z,14.70
2019-02-19T23:45:26.117Z,10.30
2019-02-19T23:47:54.660Z,10.83
2019-02-19T23:50:23.022Z,11.80
2019-02-19T23:52:51.419Z,13.27
2019-02-19T23:55:19.850Z,9.57
2019-02-19T23:57:48.248Z,11.13
